sensor_id;sensor_type;location;lat;lon;timestamp;temperature;humidity
5560;DHT22;2803;47.916;8.074;2024-02-28T00:00:52;10.50;99.90
5560;DHT22;2803;47.916;8.074;2024-02-28T00:03:19;10.50;99.90
5560;DHT22;2803;47.916;8.074;2024-02-28T00:05:47;10.30;99.90
5560;DHT22;2803;47.916;8.074;2024-02-28T00:08:15;10.30;99.90
5560;DHT22;2803;47.916;8.074;2024-02-28T00:10:42;10.20;99.90
5560;DHT22;2803;47.916;8.074;2024-02-28T00:13:09;10.40;99.90
5560;DHT22;2803;47.916;8.074;2024-02-28T00:15:35;10.80;99.90
5560;DHT22;2803;47.916;8.074;2024-02-28T00:18:02;10.90;99.90
5560;DHT22;2803;47.916;8.074;2024-02-28T00:20:29;11.10;99.90
5560;DHT22;2803;47.916;8.074;2024-02-28T00:22:55;11.20;99.90
5560;DHT22;2803;47.916;8.074;2024-02-28T00:25:23;11.30;99.90
5560;DHT22;2803;47.916;8.074;2024-02-28T00:27:50;11.40;99.90
5560;DHT22;2803;47.916;8.074;2024-02-28T00:30:17;10.80;99.90
5560;DHT22;2803;47.916;8.074;2024-02-28T00:32:44;9.90;99.90
5560;DHT22;2803;47.916;8.074;2024-02-28T00:35:10;9.90;99.90
5560;DHT22;2803;47.916;8.074;2024-02-28T00:37:37;10.10;99.90
5560;DHT22;2803;47.916;8.074;2024-02-28T00:40:04;10.50;99.90
5560;DHT22;2803;47.916;8.074;2024-02-28T00:42:32;10.80;99.90
5560;DHT22;2803;47.916;8.074;2024-02-28T00:44:58;10.70;99.90
5560;DHT22;2803;47.916;8.074;2024-02-28T00:47:25;10.80;99.90
5560;DHT22;2803;47.916;8.074;2024-02-28T00:49:52;10.70;99.90
5560;DHT22;2803;47.916;8.074;2024-02-28T00:52:18;10.70;99.90
5560;DHT22;2803;47.916;8.074;2024-02-28T00:54:45;10.90;99.90
5560;DHT22;2803;47.916;8.074;2024-02-28T00:57:11;11.10;99.90
5560;DHT22;2803;47.916;8.074;2024-02-28T00:59:39;11.20;99.90
5560;DHT22;2803;47.916;8.074;2024-02-28T01:02:06;11.30;99.90
5560;DHT22;2803;47.916;8.074;2024-02-28T01:04:32;11.10;99.90
5560;DHT22;2803;47.916;8.074;2024-02-28T01:07:00;10.90;99.90
5560;DHT22;2803;47.916;8.074;2024-02-28T01:09:26;10.40;99.90
5560;DHT22;2803;47.916;8.074;2024-02-28T01:11:53;10.00;99.90
5560;DHT22;2803;47.916;8.074;2024-02-28T01:14:20;10.20;99.90
5560;DHT22;2803;47.916;8.074;2024-02-28T01:16:47;10.30;99.90
5560;DHT22;2803;47.916;8.074;2024-02-28T01:19:15;10.60;99.90
5560;DHT22;2803;47.916;8.074;2024-02-28T01:21:42;10.90;99.90
5560;DHT22;2803;47.916;8.074;2024-02-28T01:24:09;10.90;99.90
5560;DHT22;2803;47.916;8.074;2024-02-28T01:26:35;10.20;99.90
5560;DHT22;2803;47.916;8.074;2024-02-28T01:29:03;10.10;99.90
5560;DHT22;2803;47.916;8.074;2024-02-28T01:31:29;10.40;99.90
5560;DHT22;2803;47.916;8.074;2024-02-28T01:33:57;10.30;99.90
5560;DHT22;2803;47.916;8.074;2024-02-28T01:36:24;10.20;99.90
5560;DHT22;2803;47.916;8.074;2024-02-28T01:38:51;10.00;99.90
5560;DHT22;2803;47.916;8.074;2024-02-28T01:41:18;10.10;99.90
5560;DHT22;2803;47.916;8.074;2024-02-28T01:43:45;10.00;99.90
5560;DHT22;2803;47.916;8.074;2024-02-28T01:46:20;10.10;99.90
5560;DHT22;2803;47.916;8.074;2024-02-28T01:48:47;10.40;99.90
5560;DHT22;2803;47.916;8.074;2024-02-28T01:51:16;10.50;99.90
5560;DHT22;2803;47.916;8.074;2024-02-28T01:53:43;10.30;99.90
5560;DHT22;2803;47.916;8.074;2024-02-28T01:56:11;10.50;99.90
5560;DHT22;2803;47.916;8.074;2024-02-28T01:58:39;10.70;99.90
5560;DHT22;2803;47.916;8.074;2024-02-28T02:01:06;10.60;99.90
5560;DHT22;2803;47.916;8.074;2024-02-28T02:03:33;10.50;99.90
5560;DHT22;2803;47.916;8.074;2024-02-28T02:06:01;10.60;99.90
5560;DHT22;2803;47.916;8.074;2024-02-28T02:08:29;10.70;99.90
5560;DHT22;2803;47.916;8.074;2024-02-28T02:10:56;10.80;99.90
5560;DHT22;2803;47.916;8.074;2024-02-28T02:13:22;10.90;99.90
5560;DHT22;2803;47.916;8.074;2024-02-28T02:15:49;10.90;99.90
5560;DHT22;2803;47.916;8.074;2024-02-28T02:18:16;10.90;99.90
5560;DHT22;2803;47.916;8.074;2024-02-28T02:20:48;10.90;99.90
5560;DHT22;2803;47.916;8.074;2024-02-28T02:23:17;10.90;99.90
5560;DHT22;2803;47.916;8.074;2024-02-28T02:25:44;10.90;99.90
5560;DHT22;2803;47.916;8.074;2024-02-28T02:28:11;11.00;99.90
5560;DHT22;2803;47.916;8.074;2024-02-28T02:30:38;10.90;99.90
5560;DHT22;2803;47.916;8.074;2024-02-28T02:33:06;11.10;99.90
5560;DHT22;2803;47.916;8.074;2024-02-28T02:35:33;11.10;99.90
5560;DHT22;2803;47.916;8.074;2024-02-28T02:38:00;11.00;99.90
5560;DHT22;2803;47.916;8.074;2024-02-28T02:40:28;11.00;99.90
5560;DHT22;2803;47.916;8.074;2024-02-28T02:42:55;11.00;99.90
5560;DHT22;2803;47.916;8.074;2024-02-28T02:45:21;11.00;99.90
5560;DHT22;2803;47.916;8.074;2024-02-28T02:47:48;11.00;99.90
5560;DHT22;2803;47.916;8.074;2024-02-28T02:50:14;10.90;99.90
5560;DHT22;2803;47.916;8.074;2024-02-28T02:52:41;10.80;99.90
5560;DHT22;2803;47.916;8.074;2024-02-28T02:55:09;10.80;99.90
5560;DHT22;2803;47.916;8.074;2024-02-28T02:57:37;10.70;99.90
5560;DHT22;2803;47.916;8.074;2024-02-28T03:00:04;10.70;99.90
5560;DHT22;2803;47.916;8.074;2024-02-28T03:02:34;10.70;99.90
5560;DHT22;2803;47.916;8.074;2024-02-28T03:05:03;10.80;99.90
5560;DHT22;2803;47.916;8.074;2024-02-28T03:07:29;10.80;99.90
5560;DHT22;2803;47.916;8.074;2024-02-28T03:09:56;10.80;99.90
5560;DHT22;2803;47.916;8.074;2024-02-28T03:12:23;10.80;99.90
5560;DHT22;2803;47.916;8.074;2024-02-28T03:14:50;10.90;99.90
5560;DHT22;2803;47.916;8.074;2024-02-28T03:17:17;10.90;99.90
5560;DHT22;2803;47.916;8.074;2024-02-28T03:19:44;10.80;99.90
5560;DHT22;2803;47.916;8.074;2024-02-28T03:22:10;10.90;99.90
5560;DHT22;2803;47.916;8.074;2024-02-28T03:24:37;10.80;99.90
5560;DHT22;2803;47.916;8.074;2024-02-28T03:27:03;10.90;99.90
5560;DHT22;2803;47.916;8.074;2024-02-28T03:29:31;10.90;99.90
5560;DHT22;2803;47.916;8.074;2024-02-28T03:32:00;10.90;99.90
5560;DHT22;2803;47.916;8.074;2024-02-28T03:34:26;10.90;99.90
5560;DHT22;2803;47.916;8.074;2024-02-28T03:36:53;10.90;99.90
5560;DHT22;2803;47.916;8.074;2024-02-28T03:39:20;10.90;99.90
5560;DHT22;2803;47.916;8.074;2024-02-28T03:41:46;10.80;99.90
5560;DHT22;2803;47.916;8.074;2024-02-28T03:44:13;10.40;99.90
5560;DHT22;2803;47.916;8.074;2024-02-28T03:46:40;10.30;99.90
5560;DHT22;2803;47.916;8.074;2024-02-28T03:49:07;10.30;99.90
5560;DHT22;2803;47.916;8.074;2024-02-28T03:51:39;10.10;99.90
5560;DHT22;2803;47.916;8.074;2024-02-28T03:54:07;10.20;99.90
5560;DHT22;2803;47.916;8.074;2024-02-28T03:56:34;10.30;99.90
5560;DHT22;2803;47.916;8.074;2024-02-28T03:59:01;10.50;99.90
5560;DHT22;2803;47.916;8.074;2024-02-28T04:01:29;10.60;99.90
5560;DHT22;2803;47.916;8.074;2024-02-28T04:03:55;10.50;99.90
5560;DHT22;2803;47.916;8.074;2024-02-28T04:06:23;10.60;99.90
5560;DHT22;2803;47.916;8.074;2024-02-28T04:08:50;10.70;99.90
5560;DHT22;2803;47.916;8.074;2024-02-28T04:11:16;10.70;99.90
5560;DHT22;2803;47.916;8.074;2024-02-28T04:13:43;10.80;99.90
5560;DHT22;2803;47.916;8.074;2024-02-28T04:16:10;10.80;99.90
5560;DHT22;2803;47.916;8.074;2024-02-28T04:18:36;10.30;99.90
5560;DHT22;2803;47.916;8.074;2024-02-28T04:21:03;9.70;99.90
5560;DHT22;2803;47.916;8.074;2024-02-28T04:23:31;9.10;99.90
5560;DHT22;2803;47.916;8.074;2024-02-28T04:25:58;9.10;99.90
5560;DHT22;2803;47.916;8.074;2024-02-28T04:28:24;8.80;99.90
5560;DHT22;2803;47.916;8.074;2024-02-28T04:30:51;8.70;99.90
5560;DHT22;2803;47.916;8.074;2024-02-28T04:33:17;9.10;99.90
5560;DHT22;2803;47.916;8.074;2024-02-28T04:35:44;9.30;99.90
5560;DHT22;2803;47.916;8.074;2024-02-28T04:38:11;9.80;99.90
5560;DHT22;2803;47.916;8.074;2024-02-28T04:40:39;9.90;99.90
5560;DHT22;2803;47.916;8.074;2024-02-28T04:43:05;9.70;99.90
5560;DHT22;2803;47.916;8.074;2024-02-28T04:45:32;9.60;99.90
5560;DHT22;2803;47.916;8.074;2024-02-28T04:47:58;9.70;99.90
5560;DHT22;2803;47.916;8.074;2024-02-28T04:50:24;9.40;99.90
5560;DHT22;2803;47.916;8.074;2024-02-28T04:52:51;9.40;99.90
5560;DHT22;2803;47.916;8.074;2024-02-28T04:55:17;9.50;99.90
5560;DHT22;2803;47.916;8.074;2024-02-28T04:57:45;8.70;99.90
5560;DHT22;2803;47.916;8.074;2024-02-28T05:00:13;8.60;99.90
5560;DHT22;2803;47.916;8.074;2024-02-28T05:02:43;8.60;99.90
5560;DHT22;2803;47.916;8.074;2024-02-28T05:05:10;8.60;99.90
5560;DHT22;2803;47.916;8.074;2024-02-28T05:07:36;8.50;99.90
5560;DHT22;2803;47.916;8.074;2024-02-28T05:10:03;8.80;99.90
5560;DHT22;2803;47.916;8.074;2024-02-28T05:12:30;9.00;99.90
5560;DHT22;2803;47.916;8.074;2024-02-28T05:14:58;9.50;99.90
5560;DHT22;2803;47.916;8.074;2024-02-28T05:17:25;9.70;99.90
5560;DHT22;2803;47.916;8.074;2024-02-28T05:19:52;9.90;99.90
5560;DHT22;2803;47.916;8.074;2024-02-28T05:22:19;10.20;99.90
5560;DHT22;2803;47.916;8.074;2024-02-28T05:24:46;10.30;99.90
5560;DHT22;2803;47.916;8.074;2024-02-28T05:27:12;10.40;99.90
5560;DHT22;2803;47.916;8.074;2024-02-28T05:29:39;10.40;99.90
5560;DHT22;2803;47.916;8.074;2024-02-28T05:32:08;10.30;99.90
5560;DHT22;2803;47.916;8.074;2024-02-28T05:34:34;10.50;99.90
5560;DHT22;2803;47.916;8.074;2024-02-28T05:37:01;10.40;99.90
5560;DHT22;2803;47.916;8.074;2024-02-28T05:39:28;10.30;99.90
5560;DHT22;2803;47.916;8.074;2024-02-28T05:41:56;10.40;99.90
5560;DHT22;2803;47.916;8.074;2024-02-28T05:44:23;10.50;99.90
5560;DHT22;2803;47.916;8.074;2024-02-28T05:46:50;10.60;99.90
5560;DHT22;2803;47.916;8.074;2024-02-28T05:49:18;10.70;99.90
5560;DHT22;2803;47.916;8.074;2024-02-28T05:51:45;10.40;99.90
5560;DHT22;2803;47.916;8.074;2024-02-28T05:54:12;10.40;99.90
5560;DHT22;2803;47.916;8.074;2024-02-28T05:56:39;10.40;99.90
5560;DHT22;2803;47.916;8.074;2024-02-28T05:59:05;10.20;99.90
5560;DHT22;2803;47.916;8.074;2024-02-28T06:01:32;10.40;99.90
5560;DHT22;2803;47.916;8.074;2024-02-28T06:03:58;10.50;99.90
5560;DHT22;2803;47.916;8.074;2024-02-28T06:06:26;10.60;99.90
5560;DHT22;2803;47.916;8.074;2024-02-28T06:08:53;10.60;99.90
5560;DHT22;2803;47.916;8.074;2024-02-28T06:11:19;10.70;99.90
5560;DHT22;2803;47.916;8.074;2024-02-28T06:13:46;10.70;99.90
5560;DHT22;2803;47.916;8.074;2024-02-28T06:16:15;10.10;99.90
5560;DHT22;2803;47.916;8.074;2024-02-28T06:18:43;9.70;99.90
5560;DHT22;2803;47.916;8.074;2024-02-28T06:21:09;9.70;99.90
5560;DHT22;2803;47.916;8.074;2024-02-28T06:23:37;9.70;99.90
5560;DHT22;2803;47.916;8.074;2024-02-28T06:26:04;9.90;99.90
5560;DHT22;2803;47.916;8.074;2024-02-28T06:28:31;10.20;99.90
5560;DHT22;2803;47.916;8.074;2024-02-28T06:30:58;10.30;99.90
5560;DHT22;2803;47.916;8.074;2024-02-28T06:33:25;10.30;99.90
5560;DHT22;2803;47.916;8.074;2024-02-28T06:35:51;10.30;99.90
5560;DHT22;2803;47.916;8.074;2024-02-28T06:38:18;10.40;99.90
5560;DHT22;2803;47.916;8.074;2024-02-28T06:40:46;10.50;99.90
5560;DHT22;2803;47.916;8.074;2024-02-28T06:43:12;10.60;99.90
5560;DHT22;2803;47.916;8.074;2024-02-28T06:45:40;10.50;99.90
5560;DHT22;2803;47.916;8.074;2024-02-28T06:48:07;10.60;99.90
5560;DHT22;2803;47.916;8.074;2024-02-28T06:50:34;10.50;99.90
5560;DHT22;2803;47.916;8.074;2024-02-28T06:53:00;10.50;99.90
5560;DHT22;2803;47.916;8.074;2024-02-28T06:55:27;10.60;99.90
5560;DHT22;2803;47.916;8.074;2024-02-28T06:57:55;10.80;99.90
5560;DHT22;2803;47.916;8.074;2024-02-28T07:00:22;10.70;99.90
5560;DHT22;2803;47.916;8.074;2024-02-28T07:02:48;10.80;99.90
5560;DHT22;2803;47.916;8.074;2024-02-28T07:05:16;10.80;99.90
5560;DHT22;2803;47.916;8.074;2024-02-28T07:07:42;10.70;99.90
5560;DHT22;2803;47.916;8.074;2024-02-28T07:10:09;10.70;99.90
5560;DHT22;2803;47.916;8.074;2024-02-28T07:12:36;10.70;99.90
5560;DHT22;2803;47.916;8.074;2024-02-28T07:15:05;10.80;99.90
5560;DHT22;2803;47.916;8.074;2024-02-28T07:17:31;10.80;99.90
5560;DHT22;2803;47.916;8.074;2024-02-28T07:19:58;10.80;99.90
5560;DHT22;2803;47.916;8.074;2024-02-28T07:22:25;10.70;99.90
5560;DHT22;2803;47.916;8.074;2024-02-28T07:24:51;10.70;99.90
5560;DHT22;2803;47.916;8.074;2024-02-28T07:27:18;10.80;99.90
5560;DHT22;2803;47.916;8.074;2024-02-28T07:29:44;10.80;99.90
5560;DHT22;2803;47.916;8.074;2024-02-28T07:32:12;10.80;99.90
5560;DHT22;2803;47.916;8.074;2024-02-28T07:34:39;10.80;99.90
5560;DHT22;2803;47.916;8.074;2024-02-28T07:37:05;10.90;99.90
5560;DHT22;2803;47.916;8.074;2024-02-28T07:39:32;10.80;99.90
5560;DHT22;2803;47.916;8.074;2024-02-28T07:41:59;10.30;99.90
5560;DHT22;2803;47.916;8.074;2024-02-28T07:44:25;10.20;99.90
5560;DHT22;2803;47.916;8.074;2024-02-28T07:46:56;9.80;99.90
5560;DHT22;2803;47.916;8.074;2024-02-28T07:49:24;9.50;99.90
5560;DHT22;2803;47.916;8.074;2024-02-28T07:51:50;9.50;99.90
5560;DHT22;2803;47.916;8.074;2024-02-28T07:54:17;9.60;99.90
5560;DHT22;2803;47.916;8.074;2024-02-28T07:56:44;9.50;99.90
5560;DHT22;2803;47.916;8.074;2024-02-28T07:59:10;9.80;99.90
5560;DHT22;2803;47.916;8.074;2024-02-28T08:01:37;9.70;99.90
5560;DHT22;2803;47.916;8.074;2024-02-28T08:04:05;9.00;99.90
5560;DHT22;2803;47.916;8.074;2024-02-28T08:06:33;8.90;99.90
5560;DHT22;2803;47.916;8.074;2024-02-28T08:08:59;9.20;99.90
5560;DHT22;2803;47.916;8.074;2024-02-28T08:11:26;9.20;99.90
5560;DHT22;2803;47.916;8.074;2024-02-28T08:13:53;9.30;99.90
5560;DHT22;2803;47.916;8.074;2024-02-28T08:16:19;9.70;99.90
5560;DHT22;2803;47.916;8.074;2024-02-28T08:18:46;9.80;99.90
5560;DHT22;2803;47.916;8.074;2024-02-28T08:21:13;9.60;99.90
5560;DHT22;2803;47.916;8.074;2024-02-28T08:23:41;9.60;99.90
5560;DHT22;2803;47.916;8.074;2024-02-28T08:26:07;9.90;99.90
5560;DHT22;2803;47.916;8.074;2024-02-28T08:28:34;10.20;99.90
5560;DHT22;2803;47.916;8.074;2024-02-28T08:31:00;10.10;99.90
5560;DHT22;2803;47.916;8.074;2024-02-28T08:33:27;10.30;99.90
5560;DHT22;2803;47.916;8.074;2024-02-28T08:35:53;9.90;99.90
5560;DHT22;2803;47.916;8.074;2024-02-28T08:38:20;9.60;99.90
5560;DHT22;2803;47.916;8.074;2024-02-28T08:40:48;9.60;99.90
5560;DHT22;2803;47.916;8.074;2024-02-28T08:43:14;9.80;99.90
5560;DHT22;2803;47.916;8.074;2024-02-28T08:45:41;10.30;99.90
5560;DHT22;2803;47.916;8.074;2024-02-28T08:48:08;10.50;99.90
5560;DHT22;2803;47.916;8.074;2024-02-28T08:50:34;9.70;99.90
5560;DHT22;2803;47.916;8.074;2024-02-28T08:53:01;9.40;99.90
5560;DHT22;2803;47.916;8.074;2024-02-28T08:55:28;9.80;99.90
5560;DHT22;2803;47.916;8.074;2024-02-28T08:57:56;9.50;99.90
5560;DHT22;2803;47.916;8.074;2024-02-28T09:00:23;9.60;99.90
5560;DHT22;2803;47.916;8.074;2024-02-28T09:02:49;9.80;99.90
5560;DHT22;2803;47.916;8.074;2024-02-28T09:05:16;9.40;99.90
5560;DHT22;2803;47.916;8.074;2024-02-28T09:07:43;9.20;99.90
5560;DHT22;2803;47.916;8.074;2024-02-28T09:10:11;9.10;99.90
5560;DHT22;2803;47.916;8.074;2024-02-28T09:12:38;9.40;99.90
5560;DHT22;2803;47.916;8.074;2024-02-28T09:15:06;9.70;99.90
5560;DHT22;2803;47.916;8.074;2024-02-28T09:17:34;10.30;99.90
5560;DHT22;2803;47.916;8.074;2024-02-28T09:20:01;10.70;99.90
5560;DHT22;2803;47.916;8.074;2024-02-28T09:22:29;10.60;99.90
5560;DHT22;2803;47.916;8.074;2024-02-28T09:24:56;10.30;99.90
5560;DHT22;2803;47.916;8.074;2024-02-28T09:27:22;10.20;99.90
5560;DHT22;2803;47.916;8.074;2024-02-28T09:29:50;10.30;99.90
5560;DHT22;2803;47.916;8.074;2024-02-28T09:32:18;10.30;99.90
5560;DHT22;2803;47.916;8.074;2024-02-28T09:34:44;10.50;99.90
5560;DHT22;2803;47.916;8.074;2024-02-28T09:37:11;10.00;99.90
5560;DHT22;2803;47.916;8.074;2024-02-28T09:39:38;10.10;99.90
5560;DHT22;2803;47.916;8.074;2024-02-28T09:42:05;10.20;99.90
5560;DHT22;2803;47.916;8.074;2024-02-28T09:44:32;10.50;99.90
5560;DHT22;2803;47.916;8.074;2024-02-28T09:47:00;11.20;99.90
5560;DHT22;2803;47.916;8.074;2024-02-28T09:49:28;11.50;99.90
5560;DHT22;2803;47.916;8.074;2024-02-28T09:51:58;11.90;99.90
5560;DHT22;2803;47.916;8.074;2024-02-28T09:54:26;12.00;99.90
5560;DHT22;2803;47.916;8.074;2024-02-28T09:56:52;11.60;99.90
5560;DHT22;2803;47.916;8.074;2024-02-28T09:59:20;11.80;99.90
5560;DHT22;2803;47.916;8.074;2024-02-28T10:01:53;11.80;99.90
5560;DHT22;2803;47.916;8.074;2024-02-28T10:04:20;11.30;99.90
5560;DHT22;2803;47.916;8.074;2024-02-28T10:06:48;11.60;99.90
5560;DHT22;2803;47.916;8.074;2024-02-28T10:09:15;12.20;99.90
5560;DHT22;2803;47.916;8.074;2024-02-28T10:11:42;12.60;99.90
5560;DHT22;2803;47.916;8.074;2024-02-28T10:14:10;12.90;99.90
5560;DHT22;2803;47.916;8.074;2024-02-28T10:16:36;13.00;99.90
5560;DHT22;2803;47.916;8.074;2024-02-28T10:19:04;12.80;99.90
5560;DHT22;2803;47.916;8.074;2024-02-28T10:21:31;12.50;99.90
5560;DHT22;2803;47.916;8.074;2024-02-28T10:24:00;12.40;99.90
5560;DHT22;2803;47.916;8.074;2024-02-28T10:26:26;12.20;99.90
5560;DHT22;2803;47.916;8.074;2024-02-28T10:28:56;11.60;99.90
5560;DHT22;2803;47.916;8.074;2024-02-28T10:31:22;11.50;99.90
5560;DHT22;2803;47.916;8.074;2024-02-28T10:33:49;11.90;99.90
5560;DHT22;2803;47.916;8.074;2024-02-28T10:36:16;12.40;99.90
5560;DHT22;2803;47.916;8.074;2024-02-28T10:38:43;13.50;99.90
5560;DHT22;2803;47.916;8.074;2024-02-28T10:41:12;14.30;99.90
5560;DHT22;2803;47.916;8.074;2024-02-28T10:43:41;14.90;99.90
5560;DHT22;2803;47.916;8.074;2024-02-28T10:46:08;14.70;99.90
5560;DHT22;2803;47.916;8.074;2024-02-28T10:48:35;15.00;99.90
5560;DHT22;2803;47.916;8.074;2024-02-28T10:51:03;15.70;99.90
5560;DHT22;2803;47.916;8.074;2024-02-28T10:53:35;16.10;99.90
5560;DHT22;2803;47.916;8.074;2024-02-28T10:56:03;16.70;99.90
5560;DHT22;2803;47.916;8.074;2024-02-28T10:58:35;17.10;99.90
5560;DHT22;2803;47.916;8.074;2024-02-28T11:01:03;17.00;98.80
5560;DHT22;2803;47.916;8.074;2024-02-28T11:03:30;17.10;98.80
5560;DHT22;2803;47.916;8.074;2024-02-28T11:05:57;17.20;98.30
5560;DHT22;2803;47.916;8.074;2024-02-28T11:08:24;17.60;97.70
5560;DHT22;2803;47.916;8.074;2024-02-28T11:10:55;18.30;97.00
5560;DHT22;2803;47.916;8.074;2024-02-28T11:13:22;18.90;96.20
5560;DHT22;2803;47.916;8.074;2024-02-28T11:15:51;18.60;95.60
5560;DHT22;2803;47.916;8.074;2024-02-28T11:18:18;19.10;96.20
5560;DHT22;2803;47.916;8.074;2024-02-28T11:20:44;19.80;95.00
5560;DHT22;2803;47.916;8.074;2024-02-28T11:23:13;20.20;93.40
5560;DHT22;2803;47.916;8.074;2024-02-28T11:25:41;20.70;92.60
5560;DHT22;2803;47.916;8.074;2024-02-28T11:28:08;21.20;91.90
5560;DHT22;2803;47.916;8.074;2024-02-28T11:30:35;20.90;90.60
5560;DHT22;2803;47.916;8.074;2024-02-28T11:33:03;20.40;91.00
5560;DHT22;2803;47.916;8.074;2024-02-28T11:35:30;20.30;92.10
5560;DHT22;2803;47.916;8.074;2024-02-28T11:37:57;20.50;91.50
5560;DHT22;2803;47.916;8.074;2024-02-28T11:40:24;19.90;91.20
5560;DHT22;2803;47.916;8.074;2024-02-28T11:42:51;20.20;91.30
5560;DHT22;2803;47.916;8.074;2024-02-28T11:45:18;20.00;91.20
5560;DHT22;2803;47.916;8.074;2024-02-28T11:47:45;18.90;91.60
5560;DHT22;2803;47.916;8.074;2024-02-28T11:50:13;18.30;92.50
5560;DHT22;2803;47.916;8.074;2024-02-28T11:52:41;18.10;93.20
5560;DHT22;2803;47.916;8.074;2024-02-28T11:55:08;17.70;94.50
5560;DHT22;2803;47.916;8.074;2024-02-28T11:57:34;17.10;94.50
5560;DHT22;2803;47.916;8.074;2024-02-28T12:00:03;16.30;95.80
5560;DHT22;2803;47.916;8.074;2024-02-28T12:02:30;15.20;98.00
5560;DHT22;2803;47.916;8.074;2024-02-28T12:05:00;14.50;99.60
5560;DHT22;2803;47.916;8.074;2024-02-28T12:07:29;14.30;99.90
5560;DHT22;2803;47.916;8.074;2024-02-28T12:09:55;13.80;99.90
5560;DHT22;2803;47.916;8.074;2024-02-28T12:12:22;13.30;99.90
5560;DHT22;2803;47.916;8.074;2024-02-28T12:14:50;13.40;99.90
5560;DHT22;2803;47.916;8.074;2024-02-28T12:17:17;13.40;99.90
5560;DHT22;2803;47.916;8.074;2024-02-28T12:19:44;13.70;99.90
5560;DHT22;2803;47.916;8.074;2024-02-28T12:22:10;13.80;99.90
5560;DHT22;2803;47.916;8.074;2024-02-28T12:24:38;13.60;99.90
5560;DHT22;2803;47.916;8.074;2024-02-28T12:27:05;13.00;99.90
5560;DHT22;2803;47.916;8.074;2024-02-28T12:29:32;12.60;99.90
5560;DHT22;2803;47.916;8.074;2024-02-28T12:31:58;12.40;99.90
5560;DHT22;2803;47.916;8.074;2024-02-28T12:34:25;12.20;99.90
5560;DHT22;2803;47.916;8.074;2024-02-28T12:36:52;12.40;99.90
5560;DHT22;2803;47.916;8.074;2024-02-28T12:39:19;13.00;99.90
5560;DHT22;2803;47.916;8.074;2024-02-28T12:41:47;13.50;99.90
5560;DHT22;2803;47.916;8.074;2024-02-28T12:44:13;13.70;99.90
5560;DHT22;2803;47.916;8.074;2024-02-28T12:46:39;14.00;99.90
5560;DHT22;2803;47.916;8.074;2024-02-28T12:49:06;13.60;99.90
5560;DHT22;2803;47.916;8.074;2024-02-28T12:51:37;13.50;99.90
5560;DHT22;2803;47.916;8.074;2024-02-28T12:54:04;13.10;99.90
5560;DHT22;2803;47.916;8.074;2024-02-28T12:56:31;13.10;99.90
5560;DHT22;2803;47.916;8.074;2024-02-28T12:58:59;13.60;99.90
5560;DHT22;2803;47.916;8.074;2024-02-28T13:01:26;14.00;99.90
5560;DHT22;2803;47.916;8.074;2024-02-28T13:03:53;13.90;99.90
5560;DHT22;2803;47.916;8.074;2024-02-28T13:06:19;14.00;99.90
5560;DHT22;2803;47.916;8.074;2024-02-28T13:08:45;14.00;99.90
5560;DHT22;2803;47.916;8.074;2024-02-28T13:11:17;14.20;99.90
5560;DHT22;2803;47.916;8.074;2024-02-28T13:13:44;14.50;99.90
5560;DHT22;2803;47.916;8.074;2024-02-28T13:16:12;14.50;99.90
5560;DHT22;2803;47.916;8.074;2024-02-28T13:18:38;14.80;99.90
5560;DHT22;2803;47.916;8.074;2024-02-28T13:21:05;14.90;99.90
5560;DHT22;2803;47.916;8.074;2024-02-28T13:23:31;14.70;99.90
5560;DHT22;2803;47.916;8.074;2024-02-28T13:25:59;14.40;99.90
5560;DHT22;2803;47.916;8.074;2024-02-28T13:28:26;15.00;99.90
5560;DHT22;2803;47.916;8.074;2024-02-28T13:30:55;15.40;99.90
5560;DHT22;2803;47.916;8.074;2024-02-28T13:33:23;15.80;99.90
5560;DHT22;2803;47.916;8.074;2024-02-28T13:35:49;14.80;99.90
5560;DHT22;2803;47.916;8.074;2024-02-28T13:38:16;14.90;99.90
5560;DHT22;2803;47.916;8.074;2024-02-28T13:40:43;14.70;99.90
5560;DHT22;2803;47.916;8.074;2024-02-28T13:43:11;14.00;99.90
5560;DHT22;2803;47.916;8.074;2024-02-28T13:45:38;13.30;99.90
5560;DHT22;2803;47.916;8.074;2024-02-28T13:48:15;13.20;99.90
5560;DHT22;2803;47.916;8.074;2024-02-28T13:50:43;13.00;99.90
5560;DHT22;2803;47.916;8.074;2024-02-28T13:53:11;12.80;99.90
5560;DHT22;2803;47.916;8.074;2024-02-28T13:55:38;12.90;99.90
5560;DHT22;2803;47.916;8.074;2024-02-28T13:58:04;13.20;99.90
5560;DHT22;2803;47.916;8.074;2024-02-28T14:00:32;13.30;99.90
5560;DHT22;2803;47.916;8.074;2024-02-28T14:02:59;13.30;99.90
5560;DHT22;2803;47.916;8.074;2024-02-28T14:05:26;13.20;99.90
5560;DHT22;2803;47.916;8.074;2024-02-28T14:07:54;12.90;99.90
5560;DHT22;2803;47.916;8.074;2024-02-28T14:10:21;13.00;99.90
5560;DHT22;2803;47.916;8.074;2024-02-28T14:12:48;13.10;99.90
5560;DHT22;2803;47.916;8.074;2024-02-28T14:15:15;12.90;99.90
5560;DHT22;2803;47.916;8.074;2024-02-28T14:17:41;12.80;99.90
5560;DHT22;2803;47.916;8.074;2024-02-28T14:20:09;12.90;99.90
5560;DHT22;2803;47.916;8.074;2024-02-28T14:22:36;13.30;99.90
5560;DHT22;2803;47.916;8.074;2024-02-28T14:25:11;13.20;99.90
5560;DHT22;2803;47.916;8.074;2024-02-28T14:27:38;12.80;99.90
5560;DHT22;2803;47.916;8.074;2024-02-28T14:30:06;12.20;99.90
5560;DHT22;2803;47.916;8.074;2024-02-28T14:32:34;12.20;99.90
5560;DHT22;2803;47.916;8.074;2024-02-28T14:35:01;12.60;99.90
5560;DHT22;2803;47.916;8.074;2024-02-28T14:37:28;12.50;99.90
5560;DHT22;2803;47.916;8.074;2024-02-28T14:39:55;12.60;99.90
5560;DHT22;2803;47.916;8.074;2024-02-28T14:42:23;12.60;99.90
5560;DHT22;2803;47.916;8.074;2024-02-28T14:44:50;13.00;99.90
5560;DHT22;2803;47.916;8.074;2024-02-28T14:47:18;12.60;99.90
5560;DHT22;2803;47.916;8.074;2024-02-28T14:49:45;12.50;99.90
5560;DHT22;2803;47.916;8.074;2024-02-28T14:52:12;12.30;99.90
5560;DHT22;2803;47.916;8.074;2024-02-28T14:54:38;12.40;99.90
5560;DHT22;2803;47.916;8.074;2024-02-28T14:57:05;12.70;99.90
5560;DHT22;2803;47.916;8.074;2024-02-28T14:59:33;13.00;99.90
5560;DHT22;2803;47.916;8.074;2024-02-28T15:02:00;13.00;99.90
5560;DHT22;2803;47.916;8.074;2024-02-28T15:04:26;12.90;99.90
5560;DHT22;2803;47.916;8.074;2024-02-28T15:06:53;13.00;99.90
5560;DHT22;2803;47.916;8.074;2024-02-28T15:09:20;13.00;99.90
5560;DHT22;2803;47.916;8.074;2024-02-28T15:11:47;12.70;99.90
5560;DHT22;2803;47.916;8.074;2024-02-28T15:14:14;12.30;99.90
5560;DHT22;2803;47.916;8.074;2024-02-28T15:16:42;12.50;99.90
5560;DHT22;2803;47.916;8.074;2024-02-28T15:19:08;12.80;99.90
5560;DHT22;2803;47.916;8.074;2024-02-28T15:21:35;12.90;99.90
5560;DHT22;2803;47.916;8.074;2024-02-28T15:24:02;13.00;99.90
5560;DHT22;2803;47.916;8.074;2024-02-28T15:26:29;13.00;99.90
5560;DHT22;2803;47.916;8.074;2024-02-28T15:28:56;12.90;99.90
5560;DHT22;2803;47.916;8.074;2024-02-28T15:31:22;12.80;99.90
5560;DHT22;2803;47.916;8.074;2024-02-28T15:33:50;12.70;99.90
5560;DHT22;2803;47.916;8.074;2024-02-28T15:36:17;12.70;99.90
5560;DHT22;2803;47.916;8.074;2024-02-28T15:38:43;12.90;99.90
5560;DHT22;2803;47.916;8.074;2024-02-28T15:41:10;12.60;99.90
5560;DHT22;2803;47.916;8.074;2024-02-28T15:43:37;12.40;99.90
5560;DHT22;2803;47.916;8.074;2024-02-28T15:46:03;12.50;99.90
5560;DHT22;2803;47.916;8.074;2024-02-28T15:48:30;12.50;99.90
5560;DHT22;2803;47.916;8.074;2024-02-28T15:50:58;12.50;99.90
5560;DHT22;2803;47.916;8.074;2024-02-28T15:53:25;12.30;99.90
5560;DHT22;2803;47.916;8.074;2024-02-28T15:55:51;12.10;99.90
5560;DHT22;2803;47.916;8.074;2024-02-28T15:58:18;12.10;99.90
5560;DHT22;2803;47.916;8.074;2024-02-28T16:00:44;11.90;99.90
5560;DHT22;2803;47.916;8.074;2024-02-28T16:03:11;11.90;99.90